Wilbur, West Virginia
Current Conditions -  °F | °C
As of 3:53 PM on Thursday 18 Dec 2014 (Local Time) from KCKB Reporting Station
Overcast Overcast  
Wind Chill: 23°   Ceiling: 2000
Heat Index: 28°   Visibility: 10mi
Dew Point: 20°   Wind: 5mph
Humidity: 72%   Direction: 300°WNW
Pressure: 30.16"   Gusts: NA
Location:  39.4265°N, 80.8222°W
Report Text: KCKB 182053Z 30004KT 10SM OVC020 M02/M07 A3016 RMK AO2 SLP223 T10221067 56010
Loading
Personal Weather Stations






























Interactive Weather Map New forecast layout! Learn more

10-Day Weather Forecast

Advertisements
Track Severe Weather on mobile